createdAt,value
2022-09-17T00:00:30.709Z,0.00
2022-09-17T00:01:30.738Z,0.00
2022-09-17T00:02:30.782Z,0.00
2022-09-17T00:03:30.671Z,0.00
2022-09-17T00:04:30.660Z,0.00
2022-09-17T00:05:30.649Z,0.00
2022-09-17T00:06:30.657Z,0.00
2022-09-17T00:07:30.635Z,0.00
2022-09-17T00:08:30.611Z,0.00
2022-09-17T00:09:30.609Z,0.00
2022-09-17T00:10:30.581Z,0.00
2022-09-17T00:11:30.610Z,0.00
2022-09-17T00:12:30.588Z,0.00
2022-09-17T00:13:30.559Z,0.00
2022-09-17T00:14:30.560Z,0.00
2022-09-17T00:15:30.553Z,0.00
2022-09-17T00:16:30.562Z,0.00
2022-09-17T00:17:30.512Z,0.00
2022-09-17T00:18:30.509Z,0.00
2022-09-17T00:19:30.501Z,0.00
2022-09-17T00:20:30.481Z,0.00
2022-09-17T00:21:30.482Z,0.00
2022-09-17T00:22:30.460Z,0.00
2022-09-17T00:23:30.473Z,0.00
2022-09-17T00:24:30.466Z,0.00
2022-09-17T00:25:30.431Z,0.00
2022-09-17T00:26:30.452Z,0.00
2022-09-17T00:27:30.401Z,0.00
2022-09-17T00:28:30.401Z,0.00
2022-09-17T00:29:30.392Z,0.00
2022-09-17T00:30:30.362Z,0.00
2022-09-17T00:31:30.425Z,0.00
2022-09-17T00:32:30.362Z,0.00
2022-09-17T00:33:30.376Z,0.00
2022-09-17T00:34:30.314Z,0.00
2022-09-17T00:35:30.343Z,0.00
2022-09-17T00:36:30.303Z,0.00
2022-09-17T00:37:30.319Z,0.00
2022-09-17T00:38:30.263Z,0.00
2022-09-17T00:39:30.273Z,0.00
2022-09-17T00:40:30.301Z,0.00
2022-09-17T00:41:30.237Z,0.00
2022-09-17T00:42:30.261Z,0.00
2022-09-17T00:43:30.224Z,0.00
2022-09-17T00:44:30.203Z,0.00
2022-09-17T00:45:30.205Z,0.00
2022-09-17T00:46:30.225Z,0.00
2022-09-17T00:47:30.192Z,0.00
2022-09-17T00:48:30.154Z,0.00
2022-09-17T00:49:30.166Z,0.00
2022-09-17T00:50:30.159Z,0.00
2022-09-17T00:51:30.123Z,0.00
2022-09-17T00:52:30.134Z,0.00
2022-09-17T00:53:30.116Z,0.00
2022-09-17T00:54:30.085Z,0.00
2022-09-17T00:55:30.085Z,0.00
2022-09-17T00:56:30.086Z,0.00
2022-09-17T00:57:30.072Z,0.00
2022-09-17T00:58:30.044Z,0.00
2022-09-17T00:59:30.081Z,0.00
2022-09-17T01:00:30.087Z,0.00
2022-09-17T01:01:30.019Z,0.00
2022-09-17T01:02:30.106Z,0.00
2022-09-17T01:03:29.994Z,0.00
2022-09-17T01:04:30.005Z,0.00
2022-09-17T01:05:29.956Z,0.00
2022-09-17T01:06:29.970Z,0.00
2022-09-17T01:07:29.981Z,0.00
2022-09-17T01:08:29.938Z,0.00
2022-09-17T01:09:29.927Z,0.00
2022-09-17T01:10:29.917Z,0.00
2022-09-17T01:11:29.909Z,0.00
2022-09-17T01:12:29.897Z,0.00
2022-09-17T01:13:29.904Z,0.00
2022-09-17T01:14:29.866Z,0.00
2022-09-17T01:15:29.846Z,0.00
2022-09-17T01:16:30.020Z,0.00
2022-09-17T01:17:29.838Z,0.00
2022-09-17T01:18:29.819Z,0.00
2022-09-17T01:19:29.848Z,0.00
2022-09-17T01:20:29.800Z,0.00
2022-09-17T01:21:29.778Z,0.00
2022-09-17T01:22:29.778Z,0.00
2022-09-17T01:23:29.773Z,0.00
2022-09-17T01:24:29.749Z,0.00
2022-09-17T01:25:29.739Z,0.00
2022-09-17T01:26:29.742Z,0.00
2022-09-17T01:27:29.729Z,0.00
2022-09-17T01:28:29.701Z,0.00
2022-09-17T01:29:29.688Z,0.00
2022-09-17T01:30:29.689Z,0.00
2022-09-17T01:31:29.735Z,0.00
2022-09-17T01:32:29.670Z,0.00
2022-09-17T01:33:29.660Z,0.00
2022-09-17T01:34:29.652Z,0.00
2022-09-17T01:35:29.620Z,0.00
2022-09-17T01:36:29.600Z,0.00
2022-09-17T01:37:30.834Z,0.00
2022-09-17T01:38:29.583Z,0.00
2022-09-17T01:39:29.650Z,0.00
2022-09-17T01:40:29.603Z,0.00
2022-09-17T01:41:29.561Z,0.00
2022-09-17T01:42:29.561Z,0.00
2022-09-17T01:43:29.609Z,0.00
2022-09-17T01:44:30.520Z,0.00
2022-09-17T01:45:29.511Z,0.00
2022-09-17T01:46:29.596Z,0.00
2022-09-17T01:47:29.553Z,0.00
2022-09-17T01:48:29.485Z,0.00
2022-09-17T01:49:29.462Z,0.00
2022-09-17T01:50:29.466Z,0.00
2022-09-17T01:51:29.443Z,0.00
2022-09-17T01:52:29.441Z,0.00
2022-09-17T01:53:29.432Z,0.00
2022-09-17T01:54:29.412Z,0.00
2022-09-17T01:55:29.408Z,0.00
2022-09-17T01:56:29.383Z,0.00
2022-09-17T01:57:29.444Z,0.00
2022-09-17T01:58:29.372Z,0.00
2022-09-17T01:59:29.353Z,0.00
2022-09-17T02:00:29.351Z,0.00
2022-09-17T02:01:29.349Z,0.00
2022-09-17T02:02:29.368Z,0.00
2022-09-17T02:03:29.314Z,0.00
2022-09-17T02:04:29.330Z,0.00
2022-09-17T02:05:29.304Z,0.00
2022-09-17T02:06:29.284Z,0.00
2022-09-17T02:07:29.286Z,0.00
2022-09-17T02:08:29.265Z,0.00
2022-09-17T02:09:29.244Z,0.00
2022-09-17T02:10:29.233Z,0.00
2022-09-17T02:11:29.242Z,0.00
2022-09-17T02:12:29.235Z,0.00
2022-09-17T02:13:29.197Z,0.00
2022-09-17T02:14:29.198Z,0.00
2022-09-17T02:15:29.188Z,0.00
2022-09-17T02:16:29.265Z,0.00
2022-09-17T02:17:29.195Z,0.00
2022-09-17T02:18:29.153Z,0.00
2022-09-17T02:19:29.124Z,0.00
2022-09-17T02:20:29.116Z,0.00
2022-09-17T02:21:29.120Z,0.00
2022-09-17T02:22:29.107Z,0.00
2022-09-17T02:23:29.080Z,0.00
2022-09-17T02:24:29.087Z,0.00
2022-09-17T02:25:29.090Z,0.00
2022-09-17T02:26:29.047Z,0.00
2022-09-17T02:27:29.065Z,0.00
2022-09-17T02:28:29.017Z,0.00
2022-09-17T02:29:29.025Z,0.00
2022-09-17T02:30:29.012Z,0.00
2022-09-17T02:31:29.033Z,0.00
2022-09-17T02:32:29.023Z,0.00
2022-09-17T02:33:28.971Z,0.00
2022-09-17T02:34:28.995Z,0.00
2022-09-17T02:35:28.950Z,0.00
2022-09-17T02:36:28.951Z,0.00
2022-09-17T02:37:28.947Z,0.00
2022-09-17T02:38:28.935Z,0.00
2022-09-17T02:39:28.909Z,0.00
2022-09-17T02:40:28.933Z,0.00
2022-09-17T02:41:28.897Z,0.00
2022-09-17T02:42:28.889Z,0.00
2022-09-17T02:43:28.858Z,0.00
2022-09-17T02:44:28.848Z,0.00
2022-09-17T02:45:28.839Z,0.00
2022-09-17T02:46:28.855Z,0.00
2022-09-17T02:47:28.813Z,0.00
2022-09-17T02:48:28.841Z,0.00
2022-09-17T02:49:28.799Z,0.00
2022-09-17T02:50:28.778Z,0.00
2022-09-17T02:51:28.794Z,0.00
2022-09-17T02:52:28.770Z,0.00
2022-09-17T02:53:28.763Z,0.00
2022-09-17T02:54:28.739Z,0.00
2022-09-17T02:55:28.738Z,0.00
2022-09-17T02:56:28.713Z,0.00
2022-09-17T02:57:28.691Z,0.00
2022-09-17T02:58:28.732Z,0.00
2022-09-17T02:59:28.679Z,0.00
2022-09-17T03:00:28.750Z,0.00
2022-09-17T03:01:28.645Z,0.00
2022-09-17T03:02:28.724Z,0.00
2022-09-17T03:03:28.759Z,0.00
2022-09-17T03:04:28.638Z,0.00
2022-09-17T03:05:28.612Z,0.00
2022-09-17T03:06:28.620Z,0.00
2022-09-17T03:07:28.588Z,0.00
2022-09-17T03:08:28.572Z,0.00
2022-09-17T03:09:28.575Z,0.00
2022-09-17T03:10:28.550Z,0.00
2022-09-17T03:11:28.549Z,0.00
2022-09-17T03:12:28.569Z,0.00
2022-09-17T03:13:28.531Z,0.00
2022-09-17T03:14:28.516Z,0.00
2022-09-17T03:15:28.496Z,0.00
2022-09-17T03:16:28.532Z,0.00
2022-09-17T03:17:28.485Z,0.00
2022-09-17T03:18:28.463Z,0.00
2022-09-17T03:19:28.505Z,0.00
2022-09-17T03:20:28.446Z,0.00
2022-09-17T03:21:28.413Z,0.00
2022-09-17T03:22:28.435Z,0.00
2022-09-17T03:23:28.444Z,0.00
2022-09-17T03:24:28.396Z,0.00
2022-09-17T03:25:28.372Z,0.00
2022-09-17T03:26:28.383Z,0.00
2022-09-17T03:27:28.374Z,0.00
2022-09-17T03:28:28.346Z,0.00
2022-09-17T03:29:28.353Z,0.00
2022-09-17T03:30:28.328Z,0.00
2022-09-17T03:31:28.366Z,0.00
2022-09-17T03:32:28.338Z,0.00
2022-09-17T03:33:28.285Z,0.00
2022-09-17T03:34:28.303Z,0.00
2022-09-17T03:35:28.269Z,0.00
2022-09-17T03:36:28.259Z,0.00
2022-09-17T03:37:32.723Z,0.00
2022-09-17T03:38:28.225Z,0.00
2022-09-17T03:39:28.250Z,0.00
2022-09-17T03:40:28.294Z,0.00
2022-09-17T03:41:28.197Z,0.00
2022-09-17T03:42:28.185Z,0.00
2022-09-17T03:43:28.178Z,0.00
2022-09-17T03:44:28.157Z,0.00
2022-09-17T03:45:28.155Z,0.00
2022-09-17T03:46:28.206Z,0.00
2022-09-17T03:47:28.191Z,0.00
2022-09-17T03:48:28.113Z,0.00
2022-09-17T03:49:28.108Z,0.00
2022-09-17T03:50:28.137Z,0.00
2022-09-17T03:51:28.078Z,0.00
2022-09-17T03:52:28.067Z,0.00
2022-09-17T03:53:28.102Z,0.00
2022-09-17T03:54:28.040Z,0.00
2022-09-17T03:55:28.035Z,0.00
2022-09-17T03:56:28.018Z,0.00
2022-09-17T03:57:28.027Z,0.00
2022-09-17T03:58:27.998Z,0.00
2022-09-17T03:59:27.977Z,0.00
2022-09-17T04:00:27.979Z,0.00
2022-09-17T04:01:28.008Z,0.00
2022-09-17T04:02:28.072Z,0.00
2022-09-17T04:03:27.948Z,0.00
2022-09-17T04:04:27.937Z,0.00
2022-09-17T04:05:27.926Z,0.00
2022-09-17T04:06:27.936Z,0.00
2022-09-17T04:07:27.911Z,0.00
2022-09-17T04:08:27.883Z,0.00
2022-09-17T04:09:27.875Z,0.00
2022-09-17T04:10:27.880Z,0.00
2022-09-17T04:11:27.840Z,0.00
2022-09-17T04:12:27.839Z,0.00
2022-09-17T04:13:27.844Z,0.00
2022-09-17T04:14:27.817Z,0.00
2022-09-17T04:15:27.822Z,0.00
2022-09-17T04:16:27.821Z,0.00
2022-09-17T04:17:27.828Z,0.00
2022-09-17T04:18:27.771Z,0.00
2022-09-17T04:19:27.769Z,0.00
2022-09-17T04:20:27.752Z,0.00
2022-09-17T04:21:27.739Z,0.00
2022-09-17T04:22:27.757Z,0.00
2022-09-17T04:23:27.720Z,0.00
2022-09-17T04:24:27.714Z,0.00
2022-09-17T04:25:27.690Z,0.00
2022-09-17T04:26:27.742Z,0.00
2022-09-17T04:27:27.691Z,0.00
2022-09-17T04:28:27.658Z,0.00
2022-09-17T04:29:27.683Z,0.00
2022-09-17T04:30:27.633Z,0.00
2022-09-17T04:31:27.675Z,0.00
2022-09-17T04:32:27.632Z,0.00
2022-09-17T04:33:27.641Z,0.00
2022-09-17T04:34:27.590Z,0.00
2022-09-17T04:35:27.599Z,0.00
2022-09-17T04:36:27.582Z,0.00
2022-09-17T04:37:27.563Z,0.00
2022-09-17T04:38:27.591Z,0.00
2022-09-17T04:39:27.593Z,0.00
2022-09-17T04:40:27.644Z,0.00
2022-09-17T04:41:27.536Z,0.00
2022-09-17T04:42:27.527Z,4.00
2022-09-17T04:43:27.491Z,0.00
2022-09-17T04:44:27.491Z,4.00
2022-09-17T04:45:27.452Z,4.00
2022-09-17T04:46:27.500Z,4.00
2022-09-17T04:47:27.433Z,4.00
2022-09-17T04:48:27.425Z,8.00
2022-09-17T04:49:27.424Z,8.00
2022-09-17T04:50:27.414Z,8.00
2022-09-17T04:51:27.413Z,8.00
2022-09-17T04:52:30.875Z,12.00
2022-09-17T04:53:27.383Z,12.00
2022-09-17T04:54:27.373Z,16.00
2022-09-17T04:55:27.336Z,16.00
2022-09-17T04:56:27.355Z,20.00
2022-09-17T04:57:27.324Z,24.00
2022-09-17T04:58:27.316Z,32.00
2022-09-17T04:59:27.329Z,36.00
2022-09-17T05:00:27.303Z,40.00
2022-09-17T05:01:27.343Z,44.00
2022-09-17T05:02:27.303Z,48.00
2022-09-17T05:03:27.276Z,52.00
2022-09-17T05:04:27.254Z,60.00
2022-09-17T05:05:27.240Z,68.00
2022-09-17T05:06:27.247Z,76.00
2022-09-17T05:07:27.219Z,84.00
2022-09-17T05:08:27.205Z,88.00
2022-09-17T05:09:27.204Z,96.00
2022-09-17T05:10:27.175Z,104.00
2022-09-17T05:11:27.157Z,108.00
2022-09-17T05:12:29.253Z,120.00
2022-09-17T05:13:28.156Z,124.00
2022-09-17T05:14:27.126Z,140.00
2022-09-17T05:15:27.117Z,148.00
2022-09-17T05:16:27.156Z,164.00
2022-09-17T05:17:27.118Z,176.00
2022-09-17T05:18:27.079Z,184.00
2022-09-17T05:19:27.088Z,192.00
2022-09-17T05:20:27.091Z,204.00
2022-09-17T05:21:27.079Z,224.00
2022-09-17T05:22:27.047Z,240.00
2022-09-17T05:23:27.045Z,260.00
2022-09-17T05:24:27.016Z,284.00
2022-09-17T05:25:27.078Z,308.00
2022-09-17T05:26:27.011Z,328.00
2022-09-17T05:27:26.984Z,344.00
2022-09-17T05:28:26.989Z,384.00
2022-09-17T05:29:26.968Z,428.00
2022-09-17T05:30:26.951Z,472.00
2022-09-17T05:31:27.015Z,512.00
2022-09-17T05:32:26.928Z,560.00
2022-09-17T05:33:26.975Z,612.00
2022-09-17T05:34:26.910Z,660.00
2022-09-17T05:35:26.904Z,708.00
2022-09-17T05:36:26.921Z,732.00
2022-09-17T05:37:26.870Z,736.00
2022-09-17T05:38:26.860Z,748.00
2022-09-17T05:39:26.889Z,760.00
2022-09-17T05:40:26.907Z,780.00
2022-09-17T05:41:26.820Z,832.00
2022-09-17T05:42:26.860Z,912.00
2022-09-17T05:43:26.922Z,976.00
2022-09-17T05:44:26.791Z,1020.00
2022-09-17T05:45:26.779Z,1088.00
2022-09-17T05:46:26.826Z,1152.00
2022-09-17T05:47:26.768Z,1208.00
2022-09-17T05:48:26.757Z,1252.00
2022-09-17T05:49:26.731Z,1240.00
2022-09-17T05:50:26.721Z,1200.00
2022-09-17T05:51:26.703Z,1192.00
2022-09-17T05:52:26.711Z,1240.00
2022-09-17T05:53:26.681Z,1320.00
2022-09-17T05:54:26.681Z,1324.00
2022-09-17T05:55:26.661Z,1328.00
2022-09-17T05:56:26.692Z,1388.00
2022-09-17T05:57:26.653Z,1388.00
2022-09-17T05:58:26.631Z,1360.00
2022-09-17T05:59:26.641Z,1412.00
2022-09-17T06:00:26.605Z,1464.00
2022-09-17T06:01:26.681Z,1504.00
2022-09-17T06:02:26.619Z,1492.00
2022-09-17T06:03:26.572Z,1500.00
2022-09-17T06:04:26.563Z,1584.00
2022-09-17T06:05:26.559Z,1700.00
2022-09-17T06:06:26.557Z,1780.00
2022-09-17T06:07:26.555Z,1756.00
2022-09-17T06:08:26.515Z,1720.00
2022-09-17T06:09:26.525Z,1728.00
2022-09-17T06:10:26.506Z,1796.00
2022-09-17T06:11:26.514Z,1876.00
2022-09-17T06:12:26.507Z,1988.00
2022-09-17T06:13:26.483Z,2152.00
2022-09-17T06:14:26.446Z,2268.00
2022-09-17T06:15:26.471Z,2376.00
2022-09-17T06:16:26.576Z,2412.00
2022-09-17T06:17:26.425Z,2476.00
2022-09-17T06:18:26.416Z,2460.00
2022-09-17T06:19:26.427Z,2508.00
2022-09-17T06:20:26.386Z,2692.00
2022-09-17T06:21:26.405Z,2764.00
2022-09-17T06:22:26.385Z,2756.00
2022-09-17T06:23:26.376Z,2752.00
2022-09-17T06:24:26.355Z,2672.00
2022-09-17T06:25:26.338Z,2852.00
2022-09-17T06:26:26.325Z,3192.00
2022-09-17T06:27:26.318Z,3480.00
2022-09-17T06:28:26.305Z,3440.00
2022-09-17T06:29:26.295Z,3384.00
2022-09-17T06:30:26.295Z,3280.00
2022-09-17T06:31:26.293Z,3260.00
2022-09-17T06:32:26.267Z,3256.00
2022-09-17T06:33:26.247Z,3360.00
2022-09-17T06:34:26.247Z,3500.00
2022-09-17T06:35:26.218Z,3420.00
2022-09-17T06:36:26.227Z,3460.00
2022-09-17T06:37:26.210Z,3412.00
2022-09-17T06:38:26.197Z,3480.00
2022-09-17T06:39:26.179Z,3656.00
2022-09-17T06:40:26.250Z,3900.00
2022-09-17T06:41:26.172Z,4136.00
2022-09-17T06:42:26.161Z,4276.00
2022-09-17T06:43:26.162Z,4368.00
2022-09-17T06:44:26.130Z,4416.00
2022-09-17T06:45:26.110Z,4512.00
2022-09-17T06:46:26.242Z,4628.00
2022-09-17T06:47:26.079Z,4908.00
2022-09-17T06:48:26.080Z,4912.00
2022-09-17T06:49:26.151Z,4840.00
2022-09-17T06:50:26.107Z,4596.00
2022-09-17T06:51:26.063Z,4592.00
2022-09-17T06:52:26.061Z,4564.00
2022-09-17T06:53:26.035Z,4504.00
2022-09-17T06:54:26.027Z,4440.00
2022-09-17T06:55:26.001Z,4488.00
2022-09-17T06:56:26.045Z,4612.00
2022-09-17T06:57:25.985Z,4764.00
2022-09-17T06:58:25.969Z,5036.00
2022-09-17T06:59:25.976Z,5396.00
2022-09-17T07:00:26.006Z,5396.00
2022-09-17T07:01:25.992Z,5312.00
2022-09-17T07:02:25.986Z,5260.00
2022-09-17T07:03:25.946Z,5188.00
2022-09-17T07:04:25.901Z,5240.00
2022-09-17T07:05:25.893Z,5192.00
2022-09-17T07:06:25.927Z,5120.00
2022-09-17T07:07:25.875Z,5124.00
2022-09-17T07:08:25.863Z,4976.00
2022-09-17T07:09:25.895Z,4888.00
2022-09-17T07:10:25.850Z,4732.00
2022-09-17T07:11:25.880Z,4500.00
2022-09-17T07:12:25.828Z,4276.00
2022-09-17T07:13:25.805Z,4048.00
2022-09-17T07:14:25.802Z,3916.00
2022-09-17T07:15:25.783Z,3768.00
2022-09-17T07:16:25.846Z,3652.00
2022-09-17T07:17:25.747Z,3584.00
2022-09-17T07:18:25.735Z,3528.00
2022-09-17T07:19:25.748Z,3492.00
2022-09-17T07:20:25.704Z,3432.00
2022-09-17T07:21:25.726Z,3400.00
2022-09-17T07:22:25.721Z,3404.00
2022-09-17T07:23:25.684Z,3436.00
2022-09-17T07:24:28.435Z,3392.00
2022-09-17T07:25:26.679Z,3420.00
2022-09-17T07:26:25.664Z,3524.00
2022-09-17T07:27:25.636Z,3616.00
2022-09-17T07:28:25.628Z,3756.00
2022-09-17T07:29:25.605Z,3896.00
2022-09-17T07:30:25.607Z,3948.00
2022-09-17T07:31:25.695Z,3964.00
2022-09-17T07:32:25.598Z,4020.00
2022-09-17T07:33:25.575Z,4024.00
2022-09-17T07:34:25.568Z,4188.00
2022-09-17T07:35:25.595Z,4360.00
2022-09-17T07:36:25.528Z,4320.00
2022-09-17T07:37:25.555Z,4240.00
2022-09-17T07:38:25.537Z,4164.00
2022-09-17T07:39:25.498Z,4092.00
2022-09-17T07:40:25.544Z,3924.00
2022-09-17T07:41:25.517Z,3824.00
2022-09-17T07:42:25.469Z,3716.00
2022-09-17T07:43:25.456Z,3676.00
2022-09-17T07:44:25.462Z,3636.00
2022-09-17T07:45:25.429Z,3592.00
2022-09-17T07:46:25.476Z,3568.00
2022-09-17T07:47:25.409Z,3544.00
2022-09-17T07:48:25.417Z,3548.00
2022-09-17T07:49:25.381Z,3560.00
2022-09-17T07:50:25.379Z,3476.00
2022-09-17T07:51:25.370Z,3364.00
2022-09-17T07:52:25.371Z,3328.00
2022-09-17T07:53:25.339Z,3308.00
2022-09-17T07:54:25.337Z,3324.00
2022-09-17T07:55:25.323Z,3296.00
2022-09-17T07:56:25.308Z,3208.00
2022-09-17T07:57:25.322Z,3064.00
2022-09-17T07:58:25.290Z,3096.00
2022-09-17T07:59:25.270Z,3172.00
2022-09-17T08:00:25.251Z,3248.00
2022-09-17T08:01:25.318Z,3236.00
2022-09-17T08:02:25.316Z,3176.00
2022-09-17T08:03:25.222Z,3232.00
2022-09-17T08:04:25.224Z,3532.00
2022-09-17T08:05:25.214Z,3968.00
2022-09-17T08:06:25.191Z,4348.00
2022-09-17T08:07:25.227Z,4584.00
2022-09-17T08:08:25.181Z,4648.00
2022-09-17T08:09:25.165Z,4988.00
2022-09-17T08:10:25.143Z,4996.00
2022-09-17T08:11:51.885Z,4820.00
2022-09-17T08:12:26.131Z,5084.00
2022-09-17T08:13:25.112Z,5300.00
2022-09-17T08:14:29.446Z,4896.00
2022-09-17T08:15:25.131Z,4764.00
2022-09-17T08:16:25.132Z,4732.00
2022-09-17T08:17:25.100Z,4804.00
2022-09-17T08:18:25.072Z,4968.00
2022-09-17T08:19:25.044Z,5248.00
2022-09-17T08:20:25.044Z,5456.00
2022-09-17T08:21:25.066Z,5480.00
2022-09-17T08:22:25.044Z,5068.00
2022-09-17T08:23:25.029Z,4628.00
2022-09-17T08:24:25.004Z,4484.00
2022-09-17T08:25:24.974Z,4724.00
2022-09-17T08:26:25.038Z,4940.00
2022-09-17T08:27:24.991Z,4824.00
2022-09-17T08:28:24.965Z,4564.00
2022-09-17T08:29:24.945Z,4348.00
2022-09-17T08:30:24.927Z,4368.00
2022-09-17T08:31:24.944Z,3944.00
2022-09-17T08:32:24.915Z,3700.00
2022-09-17T08:33:24.906Z,3700.00
2022-09-17T08:34:24.868Z,3752.00
2022-09-17T08:35:24.875Z,3928.00
2022-09-17T08:36:24.854Z,3988.00
2022-09-17T08:37:24.857Z,4008.00
2022-09-17T08:38:24.826Z,4480.00
2022-09-17T08:39:24.827Z,5492.00
2022-09-17T08:40:24.945Z,5496.00
2022-09-17T08:41:24.787Z,5136.00
2022-09-17T08:42:24.805Z,5352.00
2022-09-17T08:43:24.777Z,6532.00
2022-09-17T08:44:24.771Z,6312.00
2022-09-17T08:45:24.748Z,5564.00
2022-09-17T08:46:24.812Z,5020.00
2022-09-17T08:47:24.754Z,4924.00
2022-09-17T08:48:24.709Z,6064.00
2022-09-17T08:49:24.709Z,6300.00
2022-09-17T08:50:24.690Z,6668.00
2022-09-17T08:51:24.680Z,6788.00
2022-09-17T08:52:24.698Z,7280.00
2022-09-17T08:53:24.657Z,6516.00
2022-09-17T08:54:24.638Z,5788.00
2022-09-17T08:55:24.638Z,5072.00
2022-09-17T08:56:25.860Z,4828.00
2022-09-17T08:57:24.639Z,4764.00
2022-09-17T08:58:24.602Z,4540.00
2022-09-17T08:59:24.582Z,4508.00
2022-09-17T09:00:24.644Z,4380.00
2022-09-17T09:01:24.619Z,4580.00
2022-09-17T09:02:24.762Z,4920.00
2022-09-17T09:03:24.593Z,5420.00
2022-09-17T09:04:24.571Z,5184.00
2022-09-17T09:05:24.527Z,4816.00
2022-09-17T09:06:24.501Z,4668.00
2022-09-17T09:07:24.531Z,4204.00
2022-09-17T09:08:24.491Z,4800.00
2022-09-17T09:09:24.465Z,4724.00
2022-09-17T09:10:24.472Z,4048.00
2022-09-17T09:11:24.451Z,3528.00
2022-09-17T09:12:24.453Z,3352.00
2022-09-17T09:13:24.434Z,3204.00
2022-09-17T09:14:24.493Z,3524.00
2022-09-17T09:15:24.405Z,3044.00
2022-09-17T09:16:24.466Z,3916.00
2022-09-17T09:17:24.482Z,5444.00
2022-09-17T09:18:24.374Z,5700.00
2022-09-17T09:19:24.352Z,5896.00
2022-09-17T09:20:24.400Z,5432.00
2022-09-17T09:21:24.349Z,3364.00
2022-09-17T09:22:24.343Z,3728.00
2022-09-17T09:23:24.316Z,3180.00
2022-09-17T09:24:24.336Z,4460.00
2022-09-17T09:25:24.294Z,4456.00
2022-09-17T09:26:24.340Z,4508.00
2022-09-17T09:27:24.335Z,4396.00
2022-09-17T09:28:24.298Z,4448.00
2022-09-17T09:29:24.255Z,4760.00
2022-09-17T09:30:24.258Z,4824.00
2022-09-17T09:31:24.255Z,5068.00
2022-09-17T09:32:24.359Z,4944.00
2022-09-17T09:33:24.208Z,4860.00
2022-09-17T09:34:24.246Z,4620.00
2022-09-17T09:35:24.187Z,4540.00
2022-09-17T09:36:24.166Z,5052.00
2022-09-17T09:37:24.275Z,5568.00
2022-09-17T09:38:24.148Z,6016.00
2022-09-17T09:39:24.130Z,6204.00
2022-09-17T09:40:24.176Z,5652.00
2022-09-17T09:41:24.118Z,5856.00
2022-09-17T09:42:24.095Z,6196.00
2022-09-17T09:43:29.608Z,5476.00
2022-09-17T09:44:25.210Z,6452.00
2022-09-17T09:45:24.088Z,5804.00
2022-09-17T09:46:24.189Z,6196.00
2022-09-17T09:47:24.125Z,6316.00
2022-09-17T09:48:24.047Z,6948.00
2022-09-17T09:49:24.036Z,6060.00
2022-09-17T09:50:24.010Z,5644.00
2022-09-17T09:51:24.009Z,4592.00
2022-09-17T09:52:23.997Z,5392.00
2022-09-17T09:53:24.017Z,4372.00
2022-09-17T09:54:23.962Z,5040.00
2022-09-17T09:55:26.710Z,5980.00
2022-09-17T09:56:23.950Z,6772.00
2022-09-17T09:57:23.940Z,6692.00
2022-09-17T09:58:23.931Z,7760.00
2022-09-17T09:59:23.914Z,8012.00
2022-09-17T10:00:23.982Z,7904.00
2022-09-17T10:01:23.893Z,7804.00
2022-09-17T10:02:24.025Z,7148.00
2022-09-17T10:03:23.860Z,6044.00
2022-09-17T10:04:23.850Z,6252.00
2022-09-17T10:05:23.920Z,6232.00
2022-09-17T10:06:23.834Z,6264.00
2022-09-17T10:07:23.821Z,6396.00
2022-09-17T10:08:23.802Z,6860.00
2022-09-17T10:09:23.831Z,7808.00
2022-09-17T10:10:23.807Z,8248.00
2022-09-17T10:11:23.784Z,9692.00
2022-09-17T10:12:23.795Z,8144.00
2022-09-17T10:13:23.742Z,7660.00
2022-09-17T10:14:23.743Z,5864.00
2022-09-17T10:15:23.728Z,5168.00
2022-09-17T10:16:23.799Z,5668.00
2022-09-17T10:17:23.711Z,6456.00
2022-09-17T10:18:23.694Z,5996.00
2022-09-17T10:19:23.674Z,5288.00
2022-09-17T10:20:23.733Z,4608.00
2022-09-17T10:21:23.654Z,4828.00
2022-09-17T10:22:23.666Z,5200.00
2022-09-17T10:23:23.689Z,5312.00
2022-09-17T10:24:23.625Z,6560.00
2022-09-17T10:25:23.634Z,5172.00
2022-09-17T10:26:23.625Z,4788.00
2022-09-17T10:27:23.606Z,6388.00
2022-09-17T10:28:23.667Z,6684.00
2022-09-17T10:29:23.656Z,5504.00
2022-09-17T10:30:23.565Z,5628.00
2022-09-17T10:31:23.603Z,5472.00
2022-09-17T10:32:23.581Z,4928.00
2022-09-17T10:33:23.525Z,4812.00
2022-09-17T10:34:23.518Z,5496.00
2022-09-17T10:35:23.500Z,7344.00
2022-09-17T10:36:23.507Z,8492.00
2022-09-17T10:37:23.537Z,9360.00
2022-09-17T10:38:23.470Z,8024.00
2022-09-17T10:39:23.536Z,7616.00
2022-09-17T10:40:23.504Z,6584.00
2022-09-17T10:41:23.453Z,5964.00
2022-09-17T10:42:23.661Z,5212.00
2022-09-17T10:43:23.418Z,4768.00
2022-09-17T10:44:23.429Z,4164.00
2022-09-17T10:45:23.399Z,3760.00
2022-09-17T10:46:27.393Z,4740.00
2022-09-17T10:47:23.422Z,4664.00
2022-09-17T10:48:23.463Z,4704.00
2022-09-17T10:49:23.379Z,5020.00
2022-09-17T10:50:23.343Z,5608.00
2022-09-17T10:51:23.383Z,6112.00
2022-09-17T10:52:23.330Z,6352.00
2022-09-17T10:53:23.337Z,6584.00
2022-09-17T10:54:23.317Z,6720.00
2022-09-17T10:55:23.293Z,6284.00
2022-09-17T10:56:23.291Z,7496.00
2022-09-17T10:57:24.625Z,7528.00
2022-09-17T10:58:23.261Z,7268.00
2022-09-17T10:59:23.258Z,7244.00
2022-09-17T11:00:23.263Z,7596.00
2022-09-17T11:01:23.268Z,6176.00
2022-09-17T11:02:23.335Z,5240.00
2022-09-17T11:03:23.202Z,5168.00
2022-09-17T11:04:23.192Z,5488.00
2022-09-17T11:05:23.194Z,6452.00
2022-09-17T11:06:23.282Z,8424.00
2022-09-17T11:07:23.202Z,7044.00
2022-09-17T11:08:23.187Z,6424.00
2022-09-17T11:09:23.133Z,7252.00
2022-09-17T11:10:23.133Z,5856.00
2022-09-17T11:11:23.114Z,5840.00
2022-09-17T11:12:23.168Z,5440.00
2022-09-17T11:13:23.095Z,4680.00
2022-09-17T11:14:23.074Z,4552.00
2022-09-17T11:15:23.064Z,4716.00
2022-09-17T11:16:23.331Z,4876.00
2022-09-17T11:17:23.133Z,5108.00
2022-09-17T11:18:23.083Z,5140.00
2022-09-17T11:19:23.098Z,5244.00
2022-09-17T11:20:23.045Z,5600.00
2022-09-17T11:21:22.997Z,5268.00
2022-09-17T11:22:23.026Z,6924.00
2022-09-17T11:23:22.986Z,7608.00
2022-09-17T11:24:22.984Z,6928.00
2022-09-17T11:25:22.967Z,8028.00
2022-09-17T11:26:22.959Z,7672.00
2022-09-17T11:27:22.948Z,7236.00
2022-09-17T11:28:22.951Z,6660.00
2022-09-17T11:29:22.997Z,5720.00
2022-09-17T11:30:22.897Z,5440.00
2022-09-17T11:31:24.416Z,5064.00
2022-09-17T11:32:22.933Z,4908.00
2022-09-17T11:33:22.880Z,4696.00
2022-09-17T11:34:22.860Z,4272.00
2022-09-17T11:35:22.915Z,4248.00
2022-09-17T11:36:22.849Z,4152.00
2022-09-17T11:37:22.850Z,4064.00
2022-09-17T11:38:22.878Z,4100.00
2022-09-17T11:39:22.835Z,4100.00
2022-09-17T11:40:22.874Z,4092.00
2022-09-17T11:41:22.850Z,4168.00
2022-09-17T11:42:22.789Z,4120.00
2022-09-17T11:43:22.790Z,4184.00
2022-09-17T11:44:22.800Z,4296.00
2022-09-17T11:45:22.796Z,4488.00
2022-09-17T11:46:22.866Z,4524.00
2022-09-17T11:47:22.775Z,4436.00
2022-09-17T11:48:22.722Z,4504.00
2022-09-17T11:49:22.701Z,4640.00
2022-09-17T11:50:22.781Z,4796.00
2022-09-17T11:51:22.686Z,4612.00
2022-09-17T11:52:22.685Z,4548.00
2022-09-17T11:53:22.661Z,4596.00
2022-09-17T11:54:22.667Z,4740.00
2022-09-17T11:55:22.635Z,4868.00
2022-09-17T11:56:22.625Z,5088.00
2022-09-17T11:57:22.642Z,5484.00
2022-09-17T11:58:22.661Z,5696.00
2022-09-17T11:59:22.601Z,5888.00
2022-09-17T12:00:22.580Z,6612.00
2022-09-17T12:01:22.573Z,6632.00
2022-09-17T12:02:22.729Z,6844.00
2022-09-17T12:03:22.637Z,8620.00
2022-09-17T12:04:22.556Z,8536.00
2022-09-17T12:05:22.547Z,8936.00
2022-09-17T12:06:22.514Z,9120.00
2022-09-17T12:07:22.560Z,9000.00
2022-09-17T12:08:22.587Z,9596.00
2022-09-17T12:09:22.525Z,7572.00
2022-09-17T12:10:22.476Z,6444.00
2022-09-17T12:11:22.485Z,5852.00
2022-09-17T12:12:47.770Z,5016.00
2022-09-17T12:13:23.436Z,4392.00
2022-09-17T12:14:22.726Z,3848.00
2022-09-17T12:15:22.430Z,3444.00
2022-09-17T12:16:22.470Z,3280.00
2022-09-17T12:17:22.801Z,3500.00
2022-09-17T12:18:37.647Z,3996.00
2022-09-17T12:19:23.376Z,4544.00
2022-09-17T12:20:22.368Z,4816.00
2022-09-17T12:21:22.347Z,4784.00
2022-09-17T12:22:22.374Z,4220.00
2022-09-17T12:23:22.337Z,3908.00
2022-09-17T12:24:22.639Z,4272.00
2022-09-17T12:25:22.308Z,4704.00
2022-09-17T12:26:22.340Z,4192.00
2022-09-17T12:27:22.314Z,4504.00
2022-09-17T12:28:22.342Z,5776.00
2022-09-17T12:29:22.358Z,5684.00
2022-09-17T12:30:23.105Z,4488.00
2022-09-17T12:31:22.320Z,3860.00
2022-09-17T12:32:22.268Z,3584.00
2022-09-17T12:33:22.219Z,3404.00
2022-09-17T12:34:22.209Z,3248.00